Challenge des Allures Libres de Gaume

L' Allure Libre De La Rentrée - Mussy-La-Ville (10.50 km)

dimanche 01 septembre 2019

Le classement original se trouve sur : http://www.acdampicourt.be
CHALLENGE DES ALLURES LIBRES DE GAUME
L' ALLURE LIBRE DE LA RENTRÉE - MUSSY-LA-VILLE
DISTANCE : 10.50 km
dimanche 01 septembre 2019
 
Place dos NOM Cat. Pl/Cat. temps temps/km Vitesse
01:00:00              
1 2424 HAMIDFAGI Daniel S 1 00:36:49 03:30 17.11
2 801 ABAKER Yasse Mohammed Abaker S 2 00:38:36 03:41 16.32
3 560 MAKACI Mourad S 3 00:39:12 03:44 16.07
4 169 DA SILVA Arnaud S 4 00:39:49 03:48 15.82
5 2394 ELAPE MUSE Abdihackim S 5 00:40:25 03:51 15.59
6 147 CLAUSSE Christophe S 6 00:40:39 03:52 15.50
7 232 CONROTTE Florent S 7 00:41:15 03:56 15.27
8 357 COURTOIS Lionel V1 1 00:41:40 03:58 15.12
9 286 PAQUET Raphaël V1 2 00:42:46 04:04 14.73
10 130 BREVERY Jérémy S 8 00:42:52 04:05 14.70
11 2516 TONGLET Martin S 9 00:42:53 04:05 14.69
12 56 PIERRET Serge V2 1 00:42:58 04:06 14.66
13 779 FRANÇOIS Thibaut S 10 00:43:07 04:06 14.61
14 289 FRANÇOIS Aurélien S 11 00:43:30 04:09 14.48
15 2539 DE CONINCK Frédérique V1 3 00:43:37 04:09 14.44
16 183 STEFFEN John S 12 00:43:40 04:10 14.43
17 755 VIRLEZ Geoffrey S 13 00:44:25 04:14 14.18
18 441 SIMEON Michaël S 14 00:44:35 04:15 14.13
19 2187 WOJCIAK Guillaume JH 1 00:44:37 04:15 14.12
20 1350 BUCHET Bérenger S 15 00:44:38 04:15 14.12
21 520 AUTPHENNE Michaël V1 4 00:44:50 04:16 14.05
22 926 MORELLE Gaetan V1 5 00:45:25 04:20 13.87
23 284 KIM Eric V2 2 00:45:35 04:20 13.82
24 803 FISHA ARAYA Tesfahiwet S 16 00:45:54 04:22 13.73
25 999 GALLAIRE Pascal V2 3 00:46:12 04:24 13.64
26 556 GODFRIND Fabrice S 17 00:46:17 04:24 13.61
27 675 EISCHEN Alexandre S 18 00:46:21 04:25 13.59
28 1075 PRAPUOLENIS David V2 4 00:46:33 04:26 13.53
29 2314 BOUTRY Diane A1 1 00:46:38 04:26 13.51
30 677 CATTRYSSE Dominic V1 6 00:46:39 04:27 13.50
31 2540 DE CONINCK Stéphanie A1 2 00:46:54 04:28 13.43
32 337 MOGIN Laurent V2 5 00:47:13 04:30 13.34
33 67 VUERICH Sébastien V1 7 00:47:15 04:30 13.33
34 2025 BLOCK Francis V3 1 00:47:24 04:31 13.29
35 2454 CONNIASSELLE François S 19 00:47:38 04:32 13.23
36 1132 BOUS Mathieu JH 2 00:47:47 04:33 13.18
37 152 RICHARD Fabrice V2 6 00:48:04 04:35 13.11
38 2541 PACHTCHENKO Alain V2 7 00:48:18 04:36 13.04
39 371 MALCUIT Geoffrey S 20 00:48:22 04:36 13.03
40 247 PRONCE Nicolas S 21 00:48:23 04:36 13.02
41 466 HUDELOT Eric V2 8 00:48:28 04:37 13.00
42 574 KIESSEL Victor V3 2 00:48:29 04:37 12.99
43 365 HUTTING Renald V1 8 00:48:34 04:38 12.97
44 1096 LECUIVRE Jean-Christophe S 22 00:48:39 04:38 12.95
45 95 HUBERT Guillaume S 23 00:48:48 04:39 12.91
46 1415 VANDERZWALMEN Jean-Claude V2 9 00:49:08 04:41 12.82
47 264 BALON José V3 3 00:49:17 04:42 12.78
48 87 MAISSIN Bruno V1 9 00:49:19 04:42 12.77
49 2521 BOLLET Patrick V2 10 00:49:21 04:42 12.77
50 712 RABOTEUR Gary S 24 00:49:23 04:42 12.76
51 66 IN Jean-Marie V2 11 00:49:28 04:43 12.74
52 1194 LEROUX Claire A1 3 00:49:33 04:43 12.71
53 372 MALCUIT Florent V2 12 00:49:39 04:44 12.69
54 409 REISCH Mathias V3 4 00:49:54 04:45 12.63
55 252 PONCELET Willy V3 5 00:50:09 04:47 12.56
56 2177 ANDRE Jonathan S 25 00:50:38 04:49 12.44
57 1353 MANGIN Sébastien S 26 00:50:40 04:50 12.43
58 863 THOLL Jean-Philippe S 27 00:50:43 04:50 12.42
59 823 THERER Vincent V1 10 00:50:46 04:50 12.41
60 313 CATOT Frédéric V1 11 00:50:53 04:51 12.38
61 316 PECHON Amélien S 28 00:50:59 04:51 12.36
62 315 PECHON Timothé S 29 00:51:08 04:52 12.32
63 837 MERKER Stéphane S 30 00:51:15 04:53 12.29
64 511 DROPSY Yannick V2 13 00:51:29 04:54 12.24
65 694 DELAFONTAINE Simon S 31 00:51:30 04:54 12.23
66 609 BARTHAUX Benoît S 32 00:51:37 04:55 12.21
67 2008 BATHAUX Sébastien S 33 00:51:39 04:55 12.20
68 545 BLOMMAERT Christine A2 1 00:51:41 04:55 12.19
69 1977 JACOB Sylvain V1 12 00:51:59 04:57 12.12
70 140 DEBECKER Guy V3 6 00:52:02 04:57 12.11
71 433 DECKER Jean-Paul V3 7 00:52:05 04:58 12.10
72 2551 COLLIN Kevin S 34 00:52:13 04:58 12.07
73 52 DIDIER Sébastien S 35 00:52:14 04:58 12.06
74 51 VENERUCCI David V1 13 00:52:18 04:59 12.05
75 348 HENRARD Olivier V2 14 00:52:19 04:59 12.04
76 2550 VANDENINDEN Damien V1 14 00:52:24 04:59 12.02
77 471 CARELS Pascal V1 15 00:52:33 05:00 11.99
78 2542 CHRIS Christophe V2 15 00:52:37 05:01 11.97
79 602 DEWEZ Didier V1 16 00:52:40 05:01 11.96
80 31 GRANDIDIER Jacques V2 16 00:52:45 05:01 11.94
81 579 WAEYTENS Michel V3 8 00:52:47 05:02 11.94
82 1188 ROLAND Eloïse F 1 00:52:53 05:02 11.91
83 253 NAHANT Régis V1 17 00:53:09 05:04 11.85
84 2415 JOLY Patrick V1 18 00:53:12 05:04 11.84
85 1085 DUCHENE Patrick V2 17 00:53:16 05:04 11.83
86 1273 PALLAGE Frank V2 18 00:53:19 05:05 11.82
87 647 MIHRAMANE Samir V1 19 00:53:21 05:05 11.81
88 100 DEGAND Eric V2 19 00:53:38 05:06 11.75
89 2304 GOFFLOT Florent S 36 00:53:48 05:07 11.71
90 903 GALLAIRE Sylvie A2 2 00:53:52 05:08 11.70
91 1109 DETERME Mireille A1 4 00:53:54 05:08 11.69
92 91 DICUONZO Pascal V2 20 00:54:04 05:09 11.65
93 663 CABRET Christophe V2 21 00:54:06 05:09 11.65
94 1491 GABRIELLI Audrey A1 5 00:54:11 05:10 11.63
95 2557 PIOTTO Nicolas S 37 00:54:20 05:10 11.60
96 548 HANZIR Gauthier S 38 00:54:29 05:11 11.56
97 282 BASTIN Geneviève A2 3 00:54:39 05:12 11.53
98 29 MINET Eric V2 22 00:54:40 05:12 11.52
99 202 THOMAS Dylan S 39 00:55:04 05:15 11.44
100 445 TOUAZI Claude V2 23 00:55:07 05:15 11.43
101 172 BROCARD Cyril S 40 00:55:08 05:15 11.43
102 561 MALCUIT Marianne A2 4 00:55:25 05:17 11.37
103 720 POELS Luk V1 20 00:55:27 05:17 11.36
104 65 BACQ Isabelle A2 5 00:55:33 05:17 11.34
105 204 MAHY Alain V2 24 00:55:42 05:18 11.31
106 266 BRION Antoine S 41 00:56:04 05:20 11.24
107 240 VIVANI David V2 25 00:56:14 05:21 11.20
108 1144 BARTHOL Robert V2 26 00:56:24 05:22 11.17
109 1298 STEIOFF Stéphane S 42 00:56:27 05:23 11.16
110 2546 COTTIN Joséphine JF 1 00:56:33 05:23 11.14
111 2419 MARCHAL Loïc V1 21 00:56:34 05:23 11.14
112 529 MONAVILLE Amalia A1 6 00:56:36 05:23 11.13
113 2549 SOTTIAUX Cédric V1 22 00:56:37 05:24 11.13
114 176 MAURY Fanny F 2 00:56:42 05:24 11.11
115 2554 BUSSI Benjamin JH 3 00:56:50 05:25 11.09
116 306 LELEU Nathalie A2 6 00:56:57 05:25 11.06
117 246 WANLIN Franck V2 27 00:57:13 05:27 11.01
118 1040 PECHON Valérian S 43 00:57:16 05:27 11.00
119 488 GAUJARD Michaël S 44 00:57:26 05:28 10.97
120 242 MERVILLE Vincent V2 28 00:57:36 05:29 10.94
121 615 IANNONE Michel V1 23 00:57:45 05:30 10.91
122 309 ROUYER Patrick V2 29 00:58:03 05:32 10.85
123 711 LEBRUN Céline F 3 00:58:07 05:32 10.84
124 887 VINCKE Jean-Claude V2 30 00:58:16 05:33 10.81
125 1421 ADAM Servane F 4 00:58:20 05:33 10.80
126 1001 PEIFFER Laurent V1 24 00:58:25 05:34 10.78
127 39 NIHANT Myriam A3 1 00:58:30 05:34 10.77
128 629 MULLER Sébastien V1 25 00:58:31 05:34 10.77
129 2311 MARION Julien V1 26 00:58:32 05:34 10.76
130 2235 BERNE José V3 9 00:58:34 05:35 10.76
131 54 BAUWENS Jean-Marie V3 10 00:58:37 05:35 10.75
132 513 MARTIN Christophe V1 27 00:58:50 05:36 10.71
133 822 AMOROSI Adelio V3 11 00:59:19 05:39 10.62
134 420 PAPARUSSO Patrice V2 31 00:59:21 05:39 10.61
135 2543 LAHURE Stefan V1 28 00:59:22 05:39 10.61
136 2000 BALON Philippe V1 29 00:59:24 05:39 10.61
137 559 CRÉLOT Julien S 45 00:59:24 05:39 10.61
138 902 ELSEN Luc V2 32 00:59:25 05:40 10.60
139 773 DION François V1 30 00:59:26 05:40 10.60
140 537 CARETTE Bertrand S 46 00:59:28 05:40 10.59
141 1409 HUYSENTRUYT Stijn V1 31 00:59:33 05:40 10.58
142 541 WATHELET Thomas V1 32 00:59:39 05:41 10.56
143 1706 HENRARD Jean-Charles S 47 00:59:40 05:41 10.56
144 11 BALON Christophe S 48 00:59:42 05:41 10.55
145 544 HANZIR Aurélien S 49 00:59:44 05:41 10.55
146 567 PECHON Corentin S 50 00:59:49 05:42 10.53
147 19 BRUWIER Clémence F 5 00:59:55 05:42 10.51
148 207 HUMBERT Léa JF 2 01:00:24 05:45 10.43
149 57 DESORBAY Christian V3 12 01:00:25 05:45 10.43
150 1962 DASNOY Freddy V2 33 01:00:34 05:46 10.40
151 166 WAXWEILER Olivier V1 33 01:00:42 05:47 10.38
152 28 MINET Pauline F 6 01:00:44 05:47 10.37
153 173 FLEMING David V1 34 01:00:46 05:47 10.37
154 483 BOMBAERS Murielle A3 2 01:00:47 05:47 10.36
155 924 DE BEER Oliver V1 35 01:00:48 05:47 10.36
156 2558 GROENENWEGEN Geoffrey S 51 01:00:50 05:48 10.36
157 2246 DE PAEPE Robin V1 36 01:00:51 05:48 10.35
158 162 SCHOCKERT Georges V2 34 01:00:52 05:48 10.35
159 236 LAFONTAINE Dimitri V1 37 01:00:55 05:48 10.34
160 2534 SAINTMARD Nathalie A2 7 01:01:02 05:49 10.32
161 48 HANCK Fabrice V20 1 01:01:06 05:49 10.31
162 1197 SCHARFF Chantal A2 8 01:01:12 05:50 10.29
163 434 DURLET Geneviève A3 3 01:01:19 05:50 10.27
164 2143 STOZ Sophie A1 7 01:01:20 05:50 10.27
165 770 DELCROIX Laetitia A1 8 01:01:37 05:52 10.22
166 2013 GONRY Frédéric V1 38 01:01:40 05:52 10.22
167 1071 BOSCH Philippe V1 39 01:01:41 05:52 10.21
168 2556 VICENZI Philippe V1 40 01:01:43 05:53 10.21
169 787 RONGVAUX Julie F 7 01:01:44 05:53 10.21
170 2545 FILOGRASSO Christophe V1 41 01:01:45 05:53 10.20
171 2544 GUILFOYLE Ruadhri V2 35 01:01:46 05:53 10.20
172 643 BREVERY Quentin S 52 01:02:07 05:55 10.14
173 777 ROBLAIN Louis V2 36 01:02:37 05:58 10.06
174 1155 MALCUIT Marie-Ange A3 4 01:02:49 05:59 10.03
175 2138 THOME Jean V2 37 01:02:52 05:59 10.02
176 385 D'ANTUONO Michele V2 38 01:02:53 05:59 10.02
177 1446 FRANCHINI Gautier S 53 01:02:54 05:59 10.02
178 107 AMANTINI Francis V3 13 01:03:04 06:00 9.99
179 2515 DEBEN Laura F 8 01:03:10 06:01 9.97
180 564 LÉVEILLÉ Thierry V2 39 01:03:11 06:01 9.97
181 813 CHENNAUX Michel V3 14 01:03:12 06:01 9.97
182 952 EICHER Benoît S 54 01:03:19 06:02 9.95
183 60 LAM Swen-Feî V1 42 01:03:35 06:03 9.91
184 335 DERIDDER Marc V2 40 01:03:39 06:04 9.90
185 459 WEBER Jean-Raphaël V2 41 01:03:41 06:04 9.89
186 989 DENAYER Lisa JF 3 01:03:42 06:04 9.89
187 1442 MULLENDERS Mélanie F 9 01:03:52 06:05 9.86
188 1005 AGARAND Jean V3 15 01:03:53 06:05 9.86
189 314 PERIN Jean-Louis V3 16 01:03:55 06:05 9.86
190 2536 MARTIN Jean-Robert S 55 01:04:08 06:06 9.82
191 988 DENAYER Clothilde F 10 01:04:11 06:07 9.82
192 2388 HENRION Clémence F 11 01:04:17 06:07 9.80
193 2091 MINSIER Yves V1 43 01:04:26 06:08 9.78
194 181 BODELET Catherine A1 9 01:04:37 06:09 9.75
195 278 GOFFLOT Régine A2 9 01:04:39 06:09 9.74
196 2548 ROYNET Charles V1 44 01:04:50 06:10 9.72
197 862 THOLL Marie-Gabrielle A1 10 01:04:52 06:11 9.71
198 1059 DENAYER Renelle F 12 01:05:08 06:12 9.67
199 400 CLEMENT Daniel V2 42 01:05:33 06:15 9.61
200 778 THIRY Eric V2 43 01:05:47 06:16 9.58
201 661 BRANCALEONI Patrick V3 17 01:05:48 06:16 9.57
202 32 BERVILLER Josiane A4 1 01:05:55 06:17 9.56
203 2523 CLEMENT Laurent V1 45 01:05:57 06:17 9.55
204 230 PONLOT Jean-Jacques V2 44 01:06:02 06:17 9.54
205 93 WATILLON Mélanie A1 11 01:06:07 06:18 9.53
206 2552 CARATTONI Patrice V2 45 01:06:11 06:18 9.52
207 688 D'AGOSTINO Avrile F 13 01:06:12 06:18 9.52
208 2420 ORTU Jean-Pierre V2 46 01:06:27 06:20 9.48
209 2547 STIEVENART Samuel V2 47 01:06:45 06:21 9.44
210 2555 BUSSI Delphine F 14 01:07:06 06:23 9.39
211 627 MAGLIULO Marcello V2 48 01:07:59 06:28 9.27
212 458 DEROISY Joannie F 15 01:08:18 06:30 9.22
213 890 COSIN Jacques V4 1 01:08:30 06:31 9.20
214 79 BOUFFIOUX Marie A1 12 01:08:31 06:32 9.19
215 167 THOMAS Julien S 56 01:08:56 06:34 9.14
216 53 OLIVIER André V3 18 01:09:26 06:37 9.07
217 116 PONCIN Gaël S 57 01:09:34 06:38 9.06
218 293 GOFFINET Pascal V2 49 01:09:53 06:39 9.02
219 757 GUININ Pierre S 58 01:10:26 06:42 8.94
220 2553 RAGAZZI Catherine A3 5 01:11:22 06:48 8.83
221 324 BECKER Didier V3 19 01:12:13 06:53 8.72
222 1120 GILLET Sylviane A2 10 01:12:32 06:54 8.69
223 1686 DOMMARIAGE Bernadette A3 6 01:12:33 06:55 8.68
224 2317 LEGENDRE Philippe V2 50 01:12:44 06:56 8.66
225 195 BERCK Bruno V1 46 01:12:45 06:56 8.66
226 98 WILLETTE Jean-Michel V1 47 01:13:08 06:58 8.61
227 1311 AGARAND Marie-Paule A3 7 01:13:58 07:03 8.52
228 536 BLONDEAU Alban V1 48 01:14:49 07:08 8.42
229 350 SPOIDENNE Guy V3 20 01:15:14 07:10 8.37
230 641 DELAISSE Ameline F 16 01:15:15 07:10 8.37
231 1318 SIEBENALER Myriam A2 11 01:15:16 07:10 8.37
232 403 PENNING Jean-François V1 49 01:18:25 07:28 8.03
233 455 RENARD Georges V3 21 01:20:00 07:37 7.88
234 2441 MATHIEU Cédric S 59 01:20:00 07:37 7.88
235 334 JEAN Liliane A3 8 01:48:30 10:20 5.81
236 2431 RENSON Mélodie F 17 02:00:00 11:26 5.25
237 2430 DIDRICHE Alicia F 18 02:00:00 11:26 5.25
238 2382 RENSON Freddy V3 22 02:00:00 11:26 5.25
               
Nos dernières videos